sensor_id;sensor_type;location;lat;lon;timestamp;P1;durP1;ratioP1;P2;durP2;ratioP2
11042;SDS011;5574;48.786;10.120;2023-03-11T00:00:25;1.00;;;1.00;;
11042;SDS011;5574;48.786;10.120;2023-03-11T00:02:55;0.80;;;0.80;;
11042;SDS011;5574;48.786;10.120;2023-03-11T00:05:24;1.00;;;1.00;;
11042;SDS011;5574;48.786;10.120;2023-03-11T00:07:52;1.47;;;1.27;;
11042;SDS011;5574;48.786;10.120;2023-03-11T00:10:20;1.93;;;1.63;;
11042;SDS011;5574;48.786;10.120;2023-03-11T00:12:49;1.40;;;1.30;;
11042;SDS011;5574;48.786;10.120;2023-03-11T00:15:17;1.33;;;1.23;;
11042;SDS011;5574;48.786;10.120;2023-03-11T00:17:46;1.30;;;1.20;;
11042;SDS011;5574;48.786;10.120;2023-03-11T00:20:14;2.00;;;1.47;;
11042;SDS011;5574;48.786;10.120;2023-03-11T00:22:43;1.60;;;1.50;;
11042;SDS011;5574;48.786;10.120;2023-03-11T00:25:10;0.80;;;0.80;;
11042;SDS011;5574;48.786;10.120;2023-03-11T00:27:37;0.83;;;0.83;;
11042;SDS011;5574;48.786;10.120;2023-03-11T00:30:04;1.83;;;1.03;;
11042;SDS011;5574;48.786;10.120;2023-03-11T00:32:33;0.80;;;0.80;;
11042;SDS011;5574;48.786;10.120;2023-03-11T00:34:59;0.80;;;0.80;;
11042;SDS011;5574;48.786;10.120;2023-03-11T00:37:26;1.03;;;1.03;;
11042;SDS011;5574;48.786;10.120;2023-03-11T00:39:53;1.10;;;1.00;;
11042;SDS011;5574;48.786;10.120;2023-03-11T00:42:19;1.33;;;1.00;;
11042;SDS011;5574;48.786;10.120;2023-03-11T00:44:46;1.20;;;1.20;;
11042;SDS011;5574;48.786;10.120;2023-03-11T00:47:13;2.20;;;2.00;;
11042;SDS011;5574;48.786;10.120;2023-03-11T00:49:41;2.87;;;1.93;;
11042;SDS011;5574;48.786;10.120;2023-03-11T00:52:08;4.40;;;2.57;;
11042;SDS011;5574;48.786;10.120;2023-03-11T00:54:34;1.87;;;1.60;;
11042;SDS011;5574;48.786;10.120;2023-03-11T00:57:01;1.20;;;1.20;;
11042;SDS011;5574;48.786;10.120;2023-03-11T00:59:28;1.07;;;1.07;;
11042;SDS011;5574;48.786;10.120;2023-03-11T01:01:54;0.77;;;0.77;;
11042;SDS011;5574;48.786;10.120;2023-03-11T01:04:21;2.63;;;1.30;;
11042;SDS011;5574;48.786;10.120;2023-03-11T01:06:49;1.00;;;1.00;;
11042;SDS011;5574;48.786;10.120;2023-03-11T01:09:16;0.93;;;0.93;;
11042;SDS011;5574;48.786;10.120;2023-03-11T01:11:42;0.70;;;0.70;;
11042;SDS011;5574;48.786;10.120;2023-03-11T01:14:09;1.20;;;1.10;;
11042;SDS011;5574;48.786;10.120;2023-03-11T01:16:36;1.00;;;1.00;;
11042;SDS011;5574;48.786;10.120;2023-03-11T01:19:02;0.60;;;0.60;;
11042;SDS011;5574;48.786;10.120;2023-03-11T01:21:29;0.67;;;0.67;;
11042;SDS011;5574;48.786;10.120;2023-03-11T01:23:57;0.83;;;0.83;;
11042;SDS011;5574;48.786;10.120;2023-03-11T01:26:24;1.27;;;1.10;;
11042;SDS011;5574;48.786;10.120;2023-03-11T01:28:51;1.13;;;1.00;;
11042;SDS011;5574;48.786;10.120;2023-03-11T01:31:18;1.00;;;0.90;;
11042;SDS011;5574;48.786;10.120;2023-03-11T01:33:44;0.97;;;0.73;;
11042;SDS011;5574;48.786;10.120;2023-03-11T01:36:11;1.00;;;1.00;;
11042;SDS011;5574;48.786;10.120;2023-03-11T01:38:38;0.73;;;0.73;;
11042;SDS011;5574;48.786;10.120;2023-03-11T01:41:06;1.30;;;1.20;;
11042;SDS011;5574;48.786;10.120;2023-03-11T01:43:36;2.50;;;0.60;;
11042;SDS011;5574;48.786;10.120;2023-03-11T01:46:14;0.83;;;0.83;;
11042;SDS011;5574;48.786;10.120;2023-03-11T01:48:44;1.60;;;1.00;;
11042;SDS011;5574;48.786;10.120;2023-03-11T01:51:13;0.70;;;0.70;;
11042;SDS011;5574;48.786;10.120;2023-03-11T01:53:42;1.23;;;0.97;;
11042;SDS011;5574;48.786;10.120;2023-03-11T01:56:10;0.87;;;0.87;;
11042;SDS011;5574;48.786;10.120;2023-03-11T01:58:40;1.50;;;1.27;;
11042;SDS011;5574;48.786;10.120;2023-03-11T02:01:10;1.20;;;1.07;;
11042;SDS011;5574;48.786;10.120;2023-03-11T02:03:38;1.17;;;1.07;;
11042;SDS011;5574;48.786;10.120;2023-03-11T02:06:07;0.90;;;0.63;;
11042;SDS011;5574;48.786;10.120;2023-03-11T02:08:35;0.83;;;0.67;;
11042;SDS011;5574;48.786;10.120;2023-03-11T02:11:03;0.87;;;0.83;;
11042;SDS011;5574;48.786;10.120;2023-03-11T02:13:34;0.47;;;0.47;;
11042;SDS011;5574;48.786;10.120;2023-03-11T02:16:02;0.97;;;0.57;;
11042;SDS011;5574;48.786;10.120;2023-03-11T02:18:29;1.27;;;0.60;;
11042;SDS011;5574;48.786;10.120;2023-03-11T02:20:59;0.60;;;0.60;;
11042;SDS011;5574;48.786;10.120;2023-03-11T02:23:33;0.73;;;0.50;;
11042;SDS011;5574;48.786;10.120;2023-03-11T02:26:06;0.87;;;0.70;;
11042;SDS011;5574;48.786;10.120;2023-03-11T02:28:39;1.00;;;0.67;;
11042;SDS011;5574;48.786;10.120;2023-03-11T02:31:07;0.70;;;0.70;;
11042;SDS011;5574;48.786;10.120;2023-03-11T02:33:34;1.87;;;0.70;;
11042;SDS011;5574;48.786;10.120;2023-03-11T02:36:02;0.43;;;0.43;;
11042;SDS011;5574;48.786;10.120;2023-03-11T02:38:29;1.03;;;0.67;;
11042;SDS011;5574;48.786;10.120;2023-03-11T02:40:56;0.60;;;0.50;;
11042;SDS011;5574;48.786;10.120;2023-03-11T02:43:27;1.03;;;0.60;;
11042;SDS011;5574;48.786;10.120;2023-03-11T02:45:59;0.60;;;0.50;;
11042;SDS011;5574;48.786;10.120;2023-03-11T02:48:27;1.07;;;0.97;;
11042;SDS011;5574;48.786;10.120;2023-03-11T02:50:55;0.60;;;0.60;;
11042;SDS011;5574;48.786;10.120;2023-03-11T02:53:22;1.20;;;0.60;;
11042;SDS011;5574;48.786;10.120;2023-03-11T02:55:51;0.60;;;0.60;;
11042;SDS011;5574;48.786;10.120;2023-03-11T02:58:17;0.40;;;0.40;;
11042;SDS011;5574;48.786;10.120;2023-03-11T03:00:44;0.47;;;0.47;;
11042;SDS011;5574;48.786;10.120;2023-03-11T03:03:12;1.10;;;0.63;;
11042;SDS011;5574;48.786;10.120;2023-03-11T03:05:39;1.57;;;0.60;;
11042;SDS011;5574;48.786;10.120;2023-03-11T03:08:06;0.97;;;0.40;;
11042;SDS011;5574;48.786;10.120;2023-03-11T03:10:33;1.13;;;0.70;;
11042;SDS011;5574;48.786;10.120;2023-03-11T03:13:00;1.07;;;0.97;;
11042;SDS011;5574;48.786;10.120;2023-03-11T03:15:26;0.87;;;0.70;;
11042;SDS011;5574;48.786;10.120;2023-03-11T03:17:53;1.83;;;0.90;;
11042;SDS011;5574;48.786;10.120;2023-03-11T03:20:21;0.40;;;0.40;;
11042;SDS011;5574;48.786;10.120;2023-03-11T03:22:48;0.80;;;0.60;;
11042;SDS011;5574;48.786;10.120;2023-03-11T03:25:15;0.90;;;0.50;;
11042;SDS011;5574;48.786;10.120;2023-03-11T03:27:42;0.57;;;0.40;;
11042;SDS011;5574;48.786;10.120;2023-03-11T03:30:09;0.57;;;0.50;;
11042;SDS011;5574;48.786;10.120;2023-03-11T03:32:37;0.57;;;0.40;;
11042;SDS011;5574;48.786;10.120;2023-03-11T03:35:04;0.50;;;0.50;;
11042;SDS011;5574;48.786;10.120;2023-03-11T03:37:33;2.33;;;0.60;;
11042;SDS011;5574;48.786;10.120;2023-03-11T03:40:01;0.77;;;0.60;;
11042;SDS011;5574;48.786;10.120;2023-03-11T03:42:31;0.50;;;0.40;;
11042;SDS011;5574;48.786;10.120;2023-03-11T03:44:58;0.50;;;0.50;;
11042;SDS011;5574;48.786;10.120;2023-03-11T03:47:25;1.93;;;0.70;;
11042;SDS011;5574;48.786;10.120;2023-03-11T03:49:52;0.70;;;0.70;;
11042;SDS011;5574;48.786;10.120;2023-03-11T03:52:18;2.03;;;0.70;;
11042;SDS011;5574;48.786;10.120;2023-03-11T03:54:46;0.60;;;0.47;;
11042;SDS011;5574;48.786;10.120;2023-03-11T03:57:13;0.40;;;0.40;;
11042;SDS011;5574;48.786;10.120;2023-03-11T03:59:39;1.83;;;0.77;;
11042;SDS011;5574;48.786;10.120;2023-03-11T04:02:06;0.97;;;0.30;;
11042;SDS011;5574;48.786;10.120;2023-03-11T04:04:33;1.50;;;0.57;;
11042;SDS011;5574;48.786;10.120;2023-03-11T04:07:02;0.50;;;0.50;;
11042;SDS011;5574;48.786;10.120;2023-03-11T04:09:29;0.90;;;0.53;;
11042;SDS011;5574;48.786;10.120;2023-03-11T04:11:57;1.43;;;0.70;;
11042;SDS011;5574;48.786;10.120;2023-03-11T04:14:24;2.23;;;0.80;;
11042;SDS011;5574;48.786;10.120;2023-03-11T04:16:51;1.33;;;0.93;;
11042;SDS011;5574;48.786;10.120;2023-03-11T04:19:18;1.17;;;0.77;;
11042;SDS011;5574;48.786;10.120;2023-03-11T04:21:44;0.60;;;0.60;;
11042;SDS011;5574;48.786;10.120;2023-03-11T04:24:11;0.67;;;0.60;;
11042;SDS011;5574;48.786;10.120;2023-03-11T04:26:38;1.13;;;0.73;;
11042;SDS011;5574;48.786;10.120;2023-03-11T04:29:06;0.90;;;0.87;;
11042;SDS011;5574;48.786;10.120;2023-03-11T04:31:32;1.83;;;0.90;;
11042;SDS011;5574;48.786;10.120;2023-03-11T04:33:59;1.20;;;1.10;;
11042;SDS011;5574;48.786;10.120;2023-03-11T04:36:26;1.90;;;1.20;;
11042;SDS011;5574;48.786;10.120;2023-03-11T04:38:54;3.17;;;1.30;;
11042;SDS011;5574;48.786;10.120;2023-03-11T04:41:21;2.17;;;0.80;;
11042;SDS011;5574;48.786;10.120;2023-03-11T04:43:47;0.57;;;0.57;;
11042;SDS011;5574;48.786;10.120;2023-03-11T04:46:15;1.40;;;0.90;;
11042;SDS011;5574;48.786;10.120;2023-03-11T04:48:42;0.97;;;0.63;;
11042;SDS011;5574;48.786;10.120;2023-03-11T04:51:09;0.73;;;0.70;;
11042;SDS011;5574;48.786;10.120;2023-03-11T04:53:35;1.63;;;0.70;;
11042;SDS011;5574;48.786;10.120;2023-03-11T04:56:02;0.97;;;0.60;;
11042;SDS011;5574;48.786;10.120;2023-03-11T04:58:29;2.43;;;1.80;;
11042;SDS011;5574;48.786;10.120;2023-03-11T05:00:56;1.10;;;1.00;;
11042;SDS011;5574;48.786;10.120;2023-03-11T05:03:24;0.93;;;0.63;;
11042;SDS011;5574;48.786;10.120;2023-03-11T05:05:50;0.80;;;0.77;;
11042;SDS011;5574;48.786;10.120;2023-03-11T05:08:20;0.70;;;0.70;;
11042;SDS011;5574;48.786;10.120;2023-03-11T05:10:47;6.57;;;1.00;;
11042;SDS011;5574;48.786;10.120;2023-03-11T05:13:14;0.80;;;0.80;;
11042;SDS011;5574;48.786;10.120;2023-03-11T05:15:41;1.37;;;0.70;;
11042;SDS011;5574;48.786;10.120;2023-03-11T05:18:07;1.07;;;1.07;;
11042;SDS011;5574;48.786;10.120;2023-03-11T05:20:35;1.23;;;0.80;;
11042;SDS011;5574;48.786;10.120;2023-03-11T05:23:02;1.07;;;0.83;;
11042;SDS011;5574;48.786;10.120;2023-03-11T05:25:29;0.80;;;0.80;;
11042;SDS011;5574;48.786;10.120;2023-03-11T05:27:56;0.80;;;0.77;;
11042;SDS011;5574;48.786;10.120;2023-03-11T05:30:22;1.60;;;0.87;;
11042;SDS011;5574;48.786;10.120;2023-03-11T05:32:49;3.13;;;1.33;;
11042;SDS011;5574;48.786;10.120;2023-03-11T05:35:16;2.50;;;1.00;;
11042;SDS011;5574;48.786;10.120;2023-03-11T05:37:44;2.83;;;1.17;;
11042;SDS011;5574;48.786;10.120;2023-03-11T05:40:13;1.77;;;1.10;;
11042;SDS011;5574;48.786;10.120;2023-03-11T05:42:41;0.90;;;0.77;;
11042;SDS011;5574;48.786;10.120;2023-03-11T05:45:08;1.73;;;0.87;;
11042;SDS011;5574;48.786;10.120;2023-03-11T05:47:35;1.90;;;1.23;;
11042;SDS011;5574;48.786;10.120;2023-03-11T05:50:02;1.10;;;1.00;;
11042;SDS011;5574;48.786;10.120;2023-03-11T05:52:30;1.40;;;0.90;;
11042;SDS011;5574;48.786;10.120;2023-03-11T05:54:59;1.57;;;0.90;;
11042;SDS011;5574;48.786;10.120;2023-03-11T05:57:26;2.00;;;1.10;;
11042;SDS011;5574;48.786;10.120;2023-03-11T05:59:53;1.47;;;1.37;;
11042;SDS011;5574;48.786;10.120;2023-03-11T06:02:19;0.80;;;0.80;;
11042;SDS011;5574;48.786;10.120;2023-03-11T06:04:47;1.77;;;0.67;;
11042;SDS011;5574;48.786;10.120;2023-03-11T06:07:14;1.10;;;0.83;;
11042;SDS011;5574;48.786;10.120;2023-03-11T06:09:40;2.07;;;1.00;;
11042;SDS011;5574;48.786;10.120;2023-03-11T06:12:08;2.17;;;1.10;;
11042;SDS011;5574;48.786;10.120;2023-03-11T06:14:35;0.93;;;0.80;;
11042;SDS011;5574;48.786;10.120;2023-03-11T06:17:02;1.03;;;0.90;;
11042;SDS011;5574;48.786;10.120;2023-03-11T06:19:29;1.93;;;0.97;;
11042;SDS011;5574;48.786;10.120;2023-03-11T06:21:56;2.13;;;0.87;;
11042;SDS011;5574;48.786;10.120;2023-03-11T06:24:22;1.93;;;0.90;;
11042;SDS011;5574;48.786;10.120;2023-03-11T06:26:49;1.00;;;0.83;;
11042;SDS011;5574;48.786;10.120;2023-03-11T06:29:18;0.80;;;0.80;;
11042;SDS011;5574;48.786;10.120;2023-03-11T06:31:45;2.50;;;1.20;;
11042;SDS011;5574;48.786;10.120;2023-03-11T06:34:12;1.90;;;0.70;;
11042;SDS011;5574;48.786;10.120;2023-03-11T06:36:39;1.50;;;1.07;;
11042;SDS011;5574;48.786;10.120;2023-03-11T06:39:06;1.87;;;0.77;;
11042;SDS011;5574;48.786;10.120;2023-03-11T06:41:33;1.60;;;0.93;;
11042;SDS011;5574;48.786;10.120;2023-03-11T06:44:00;3.07;;;1.00;;
11042;SDS011;5574;48.786;10.120;2023-03-11T06:46:28;2.63;;;1.10;;
11042;SDS011;5574;48.786;10.120;2023-03-11T06:48:54;0.93;;;0.83;;
11042;SDS011;5574;48.786;10.120;2023-03-11T06:51:21;2.03;;;1.07;;
11042;SDS011;5574;48.786;10.120;2023-03-11T06:53:48;1.30;;;1.17;;
11042;SDS011;5574;48.786;10.120;2023-03-11T06:56:16;2.50;;;1.03;;
11042;SDS011;5574;48.786;10.120;2023-03-11T06:58:44;1.17;;;1.07;;
11042;SDS011;5574;48.786;10.120;2023-03-11T07:01:11;1.73;;;0.90;;
11042;SDS011;5574;48.786;10.120;2023-03-11T07:03:41;1.07;;;0.93;;
11042;SDS011;5574;48.786;10.120;2023-03-11T07:06:10;1.70;;;1.00;;
11042;SDS011;5574;48.786;10.120;2023-03-11T07:08:38;4.40;;;0.93;;
11042;SDS011;5574;48.786;10.120;2023-03-11T07:11:05;3.17;;;1.23;;
11042;SDS011;5574;48.786;10.120;2023-03-11T07:13:33;3.80;;;1.00;;
11042;SDS011;5574;48.786;10.120;2023-03-11T07:16:01;1.20;;;0.90;;
11042;SDS011;5574;48.786;10.120;2023-03-11T07:18:29;2.00;;;1.20;;
11042;SDS011;5574;48.786;10.120;2023-03-11T07:20:57;1.77;;;1.20;;
11042;SDS011;5574;48.786;10.120;2023-03-11T07:23:25;2.87;;;1.90;;
11042;SDS011;5574;48.786;10.120;2023-03-11T07:25:52;2.03;;;1.03;;
11042;SDS011;5574;48.786;10.120;2023-03-11T07:28:19;2.90;;;1.30;;
11042;SDS011;5574;48.786;10.120;2023-03-11T07:30:46;2.47;;;1.20;;
11042;SDS011;5574;48.786;10.120;2023-03-11T07:33:13;3.07;;;1.07;;
11042;SDS011;5574;48.786;10.120;2023-03-11T07:35:40;1.53;;;0.93;;
11042;SDS011;5574;48.786;10.120;2023-03-11T07:38:08;2.73;;;1.30;;
11042;SDS011;5574;48.786;10.120;2023-03-11T07:40:34;1.97;;;1.30;;
11042;SDS011;5574;48.786;10.120;2023-03-11T07:43:02;2.50;;;1.20;;
11042;SDS011;5574;48.786;10.120;2023-03-11T07:45:29;1.87;;;1.50;;
11042;SDS011;5574;48.786;10.120;2023-03-11T07:47:55;1.47;;;0.80;;
11042;SDS011;5574;48.786;10.120;2023-03-11T07:50:22;2.90;;;1.20;;
11042;SDS011;5574;48.786;10.120;2023-03-11T07:52:49;2.03;;;1.00;;
11042;SDS011;5574;48.786;10.120;2023-03-11T07:55:17;2.80;;;1.40;;
11042;SDS011;5574;48.786;10.120;2023-03-11T07:57:45;2.63;;;1.27;;
11042;SDS011;5574;48.786;10.120;2023-03-11T08:00:13;2.70;;;1.40;;
11042;SDS011;5574;48.786;10.120;2023-03-11T08:02:40;2.53;;;1.20;;
11042;SDS011;5574;48.786;10.120;2023-03-11T08:05:07;1.80;;;1.40;;
11042;SDS011;5574;48.786;10.120;2023-03-11T08:07:35;2.73;;;1.67;;
11042;SDS011;5574;48.786;10.120;2023-03-11T08:10:01;3.47;;;1.40;;
11042;SDS011;5574;48.786;10.120;2023-03-11T08:12:29;2.70;;;1.30;;
11042;SDS011;5574;48.786;10.120;2023-03-11T08:14:56;2.33;;;0.80;;
11042;SDS011;5574;48.786;10.120;2023-03-11T08:17:23;3.47;;;2.17;;
11042;SDS011;5574;48.786;10.120;2023-03-11T08:19:49;2.03;;;1.40;;
11042;SDS011;5574;48.786;10.120;2023-03-11T08:22:16;3.20;;;1.40;;
11042;SDS011;5574;48.786;10.120;2023-03-11T08:24:43;2.00;;;1.37;;
11042;SDS011;5574;48.786;10.120;2023-03-11T08:27:10;3.80;;;2.03;;
11042;SDS011;5574;48.786;10.120;2023-03-11T08:29:38;2.60;;;1.30;;
11042;SDS011;5574;48.786;10.120;2023-03-11T08:32:05;2.17;;;1.20;;
11042;SDS011;5574;48.786;10.120;2023-03-11T08:34:32;1.97;;;1.70;;
11042;SDS011;5574;48.786;10.120;2023-03-11T08:36:59;3.80;;;2.03;;
11042;SDS011;5574;48.786;10.120;2023-03-11T08:39:26;2.67;;;1.47;;
11042;SDS011;5574;48.786;10.120;2023-03-11T08:41:53;5.33;;;1.47;;
11042;SDS011;5574;48.786;10.120;2023-03-11T08:44:19;4.47;;;1.83;;
11042;SDS011;5574;48.786;10.120;2023-03-11T08:46:47;2.63;;;1.67;;
11042;SDS011;5574;48.786;10.120;2023-03-11T08:49:14;1.50;;;1.40;;
11042;SDS011;5574;48.786;10.120;2023-03-11T08:51:41;1.70;;;1.60;;
11042;SDS011;5574;48.786;10.120;2023-03-11T08:54:07;3.30;;;1.40;;
11042;SDS011;5574;48.786;10.120;2023-03-11T08:56:34;5.97;;;1.70;;
11042;SDS011;5574;48.786;10.120;2023-03-11T08:59:01;4.37;;;1.40;;
11042;SDS011;5574;48.786;10.120;2023-03-11T09:01:28;3.67;;;1.50;;
11042;SDS011;5574;48.786;10.120;2023-03-11T09:03:56;2.67;;;1.40;;
11042;SDS011;5574;48.786;10.120;2023-03-11T09:06:22;3.77;;;1.30;;
11042;SDS011;5574;48.786;10.120;2023-03-11T09:08:49;2.80;;;1.27;;
11042;SDS011;5574;48.786;10.120;2023-03-11T09:11:17;3.63;;;1.50;;
11042;SDS011;5574;48.786;10.120;2023-03-11T09:13:46;2.40;;;1.40;;
11042;SDS011;5574;48.786;10.120;2023-03-11T09:16:13;2.27;;;1.60;;
11042;SDS011;5574;48.786;10.120;2023-03-11T09:18:42;4.63;;;1.53;;
11042;SDS011;5574;48.786;10.120;2023-03-11T09:21:10;3.80;;;1.70;;
11042;SDS011;5574;48.786;10.120;2023-03-11T09:23:37;2.73;;;1.77;;
11042;SDS011;5574;48.786;10.120;2023-03-11T09:26:04;1.40;;;1.30;;
11042;SDS011;5574;48.786;10.120;2023-03-11T09:28:31;4.80;;;2.73;;
11042;SDS011;5574;48.786;10.120;2023-03-11T09:30:57;6.10;;;4.53;;
11042;SDS011;5574;48.786;10.120;2023-03-11T09:33:24;2.43;;;2.23;;
11042;SDS011;5574;48.786;10.120;2023-03-11T09:35:51;2.70;;;1.40;;
11042;SDS011;5574;48.786;10.120;2023-03-11T09:38:19;1.90;;;1.53;;
11042;SDS011;5574;48.786;10.120;2023-03-11T09:40:48;2.83;;;1.50;;
11042;SDS011;5574;48.786;10.120;2023-03-11T09:43:21;3.77;;;1.30;;
11042;SDS011;5574;48.786;10.120;2023-03-11T09:45:58;3.03;;;1.23;;
11042;SDS011;5574;48.786;10.120;2023-03-11T09:48:31;6.47;;;1.50;;
11042;SDS011;5574;48.786;10.120;2023-03-11T09:51:07;2.97;;;1.50;;
11042;SDS011;5574;48.786;10.120;2023-03-11T09:53:39;3.43;;;1.33;;
11042;SDS011;5574;48.786;10.120;2023-03-11T09:56:08;1.07;;;1.00;;
11042;SDS011;5574;48.786;10.120;2023-03-11T09:58:37;3.20;;;1.70;;
11042;SDS011;5574;48.786;10.120;2023-03-11T10:01:10;1.87;;;1.40;;
11042;SDS011;5574;48.786;10.120;2023-03-11T10:03:41;1.90;;;1.37;;
11042;SDS011;5574;48.786;10.120;2023-03-11T10:06:13;2.37;;;1.27;;
11042;SDS011;5574;48.786;10.120;2023-03-11T10:08:44;1.87;;;1.53;;
11042;SDS011;5574;48.786;10.120;2023-03-11T10:11:28;3.27;;;1.80;;
11042;SDS011;5574;48.786;10.120;2023-03-11T10:14:15;2.57;;;1.43;;
11042;SDS011;5574;48.786;10.120;2023-03-11T10:16:52;1.63;;;1.20;;
11042;SDS011;5574;48.786;10.120;2023-03-11T10:19:27;4.33;;;1.80;;
11042;SDS011;5574;48.786;10.120;2023-03-11T10:22:05;1.37;;;1.13;;
11042;SDS011;5574;48.786;10.120;2023-03-11T10:24:42;2.93;;;1.27;;
11042;SDS011;5574;48.786;10.120;2023-03-11T10:27:18;3.20;;;1.70;;
11042;SDS011;5574;48.786;10.120;2023-03-11T10:29:50;4.80;;;1.50;;
11042;SDS011;5574;48.786;10.120;2023-03-11T10:32:23;3.23;;;1.40;;
11042;SDS011;5574;48.786;10.120;2023-03-11T10:34:55;2.37;;;1.93;;
11042;SDS011;5574;48.786;10.120;2023-03-11T10:37:26;4.27;;;1.67;;
11042;SDS011;5574;48.786;10.120;2023-03-11T10:39:56;1.87;;;1.67;;
11042;SDS011;5574;48.786;10.120;2023-03-11T10:42:29;3.20;;;1.30;;
11042;SDS011;5574;48.786;10.120;2023-03-11T10:44:58;2.07;;;1.50;;
11042;SDS011;5574;48.786;10.120;2023-03-11T10:47:25;3.20;;;1.70;;
11042;SDS011;5574;48.786;10.120;2023-03-11T10:49:54;1.80;;;1.60;;
11042;SDS011;5574;48.786;10.120;2023-03-11T10:52:21;2.97;;;1.43;;
11042;SDS011;5574;48.786;10.120;2023-03-11T10:54:51;1.67;;;1.23;;
11042;SDS011;5574;48.786;10.120;2023-03-11T10:57:27;1.10;;;1.00;;
11042;SDS011;5574;48.786;10.120;2023-03-11T10:59:58;2.03;;;1.30;;
11042;SDS011;5574;48.786;10.120;2023-03-11T11:02:26;2.47;;;1.30;;
11042;SDS011;5574;48.786;10.120;2023-03-11T11:05:06;2.50;;;1.80;;
11042;SDS011;5574;48.786;10.120;2023-03-11T11:08:00;1.70;;;1.60;;
11042;SDS011;5574;48.786;10.120;2023-03-11T11:10:30;2.87;;;1.50;;
11042;SDS011;5574;48.786;10.120;2023-03-11T11:12:59;1.63;;;1.40;;
11042;SDS011;5574;48.786;10.120;2023-03-11T11:15:27;2.70;;;1.90;;
11042;SDS011;5574;48.786;10.120;2023-03-11T11:17:56;3.83;;;2.20;;
11042;SDS011;5574;48.786;10.120;2023-03-11T11:20:24;1.97;;;1.80;;
11042;SDS011;5574;48.786;10.120;2023-03-11T11:22:53;4.47;;;2.67;;
11042;SDS011;5574;48.786;10.120;2023-03-11T11:25:30;2.03;;;1.57;;
11042;SDS011;5574;48.786;10.120;2023-03-11T11:28:00;1.50;;;1.40;;
11042;SDS011;5574;48.786;10.120;2023-03-11T11:30:30;1.93;;;1.50;;
11042;SDS011;5574;48.786;10.120;2023-03-11T11:33:00;2.60;;;1.70;;
11042;SDS011;5574;48.786;10.120;2023-03-11T11:35:50;2.07;;;1.60;;
11042;SDS011;5574;48.786;10.120;2023-03-11T11:38:20;3.27;;;1.50;;
11042;SDS011;5574;48.786;10.120;2023-03-11T11:40:50;2.20;;;1.23;;
11042;SDS011;5574;48.786;10.120;2023-03-11T11:43:17;3.63;;;1.40;;
11042;SDS011;5574;48.786;10.120;2023-03-11T11:45:48;1.73;;;1.33;;
11042;SDS011;5574;48.786;10.120;2023-03-11T11:48:21;1.73;;;1.33;;
11042;SDS011;5574;48.786;10.120;2023-03-11T11:50:52;1.60;;;1.20;;
11042;SDS011;5574;48.786;10.120;2023-03-11T11:53:24;1.87;;;1.40;;
11042;SDS011;5574;48.786;10.120;2023-03-11T11:55:57;1.50;;;1.20;;
11042;SDS011;5574;48.786;10.120;2023-03-11T11:58:23;1.50;;;1.20;;
11042;SDS011;5574;48.786;10.120;2023-03-11T12:00:54;4.97;;;1.60;;
11042;SDS011;5574;48.786;10.120;2023-03-11T12:03:38;1.43;;;1.30;;
11042;SDS011;5574;48.786;10.120;2023-03-11T12:06:19;2.33;;;1.47;;
11042;SDS011;5574;48.786;10.120;2023-03-11T12:08:54;1.27;;;1.10;;
11042;SDS011;5574;48.786;10.120;2023-03-11T12:11:34;2.07;;;1.07;;
11042;SDS011;5574;48.786;10.120;2023-03-11T12:14:08;2.30;;;1.27;;
11042;SDS011;5574;48.786;10.120;2023-03-11T12:16:43;1.20;;;1.10;;
11042;SDS011;5574;48.786;10.120;2023-03-11T12:19:22;1.90;;;1.00;;
11042;SDS011;5574;48.786;10.120;2023-03-11T12:22:03;0.80;;;0.77;;
11042;SDS011;5574;48.786;10.120;2023-03-11T12:25:00;2.10;;;1.20;;
11042;SDS011;5574;48.786;10.120;2023-03-11T12:27:39;1.83;;;1.20;;
11042;SDS011;5574;48.786;10.120;2023-03-11T12:30:10;1.00;;;1.00;;
11042;SDS011;5574;48.786;10.120;2023-03-11T12:32:42;1.07;;;1.07;;
11042;SDS011;5574;48.786;10.120;2023-03-11T12:35:17;1.33;;;1.07;;
11042;SDS011;5574;48.786;10.120;2023-03-11T12:37:53;2.53;;;1.40;;
11042;SDS011;5574;48.786;10.120;2023-03-11T12:49:33;1.83;;;1.40;;
11042;SDS011;5574;48.786;10.120;2023-03-11T12:52:03;2.33;;;2.07;;
11042;SDS011;5574;48.786;10.120;2023-03-11T12:54:45;3.17;;;1.60;;
11042;SDS011;5574;48.786;10.120;2023-03-11T12:57:26;2.70;;;1.30;;
11042;SDS011;5574;48.786;10.120;2023-03-11T13:00:07;1.70;;;1.33;;
11042;SDS011;5574;48.786;10.120;2023-03-11T13:02:51;2.50;;;1.40;;
11042;SDS011;5574;48.786;10.120;2023-03-11T13:05:44;1.33;;;1.13;;
11042;SDS011;5574;48.786;10.120;2023-03-11T13:08:18;1.57;;;1.30;;
11042;SDS011;5574;48.786;10.120;2023-03-11T13:10:47;1.73;;;1.30;;
11042;SDS011;5574;48.786;10.120;2023-03-11T13:13:22;1.63;;;1.27;;
11042;SDS011;5574;48.786;10.120;2023-03-11T13:16:17;2.17;;;1.50;;
11042;SDS011;5574;48.786;10.120;2023-03-11T13:25:35;4.63;;;1.47;;
11042;SDS011;5574;48.786;10.120;2023-03-11T13:28:20;2.37;;;1.20;;
11042;SDS011;5574;48.786;10.120;2023-03-11T13:30:56;2.10;;;0.97;;
11042;SDS011;5574;48.786;10.120;2023-03-11T13:33:40;1.10;;;1.00;;
11042;SDS011;5574;48.786;10.120;2023-03-11T13:36:17;1.10;;;1.10;;
11042;SDS011;5574;48.786;10.120;2023-03-11T13:39:02;1.37;;;1.27;;
11042;SDS011;5574;48.786;10.120;2023-03-11T13:41:46;2.10;;;1.17;;
11042;SDS011;5574;48.786;10.120;2023-03-11T13:44:16;1.70;;;1.40;;
11042;SDS011;5574;48.786;10.120;2023-03-11T13:46:53;1.10;;;0.93;;
11042;SDS011;5574;48.786;10.120;2023-03-11T13:49:29;1.53;;;1.33;;
11042;SDS011;5574;48.786;10.120;2023-03-11T13:52:00;1.33;;;1.27;;
11042;SDS011;5574;48.786;10.120;2023-03-11T13:54:33;3.27;;;1.50;;
11042;SDS011;5574;48.786;10.120;2023-03-11T13:57:04;2.27;;;1.00;;
11042;SDS011;5574;48.786;10.120;2023-03-11T13:59:38;1.40;;;0.90;;
11042;SDS011;5574;48.786;10.120;2023-03-11T14:02:13;0.90;;;0.90;;
11042;SDS011;5574;48.786;10.120;2023-03-11T14:04:47;1.20;;;1.10;;
11042;SDS011;5574;48.786;10.120;2023-03-11T14:07:18;1.00;;;1.00;;
11042;SDS011;5574;48.786;10.120;2023-03-11T14:09:49;2.53;;;1.10;;
11042;SDS011;5574;48.786;10.120;2023-03-11T14:12:16;1.13;;;1.03;;
11042;SDS011;5574;48.786;10.120;2023-03-11T14:14:44;2.37;;;1.40;;
11042;SDS011;5574;48.786;10.120;2023-03-11T14:17:18;2.20;;;1.53;;
11042;SDS011;5574;48.786;10.120;2023-03-11T14:22:30;1.30;;;1.20;;
11042;SDS011;5574;48.786;10.120;2023-03-11T14:24:58;1.40;;;1.30;;
11042;SDS011;5574;48.786;10.120;2023-03-11T14:27:31;1.37;;;1.27;;
11042;SDS011;5574;48.786;10.120;2023-03-11T14:29:58;2.63;;;1.27;;
11042;SDS011;5574;48.786;10.120;2023-03-11T14:32:27;1.67;;;1.17;;
11042;SDS011;5574;48.786;10.120;2023-03-11T14:34:55;1.63;;;1.50;;
11042;SDS011;5574;48.786;10.120;2023-03-11T14:37:24;1.47;;;1.20;;
11042;SDS011;5574;48.786;10.120;2023-03-11T14:39:55;0.90;;;0.90;;
11042;SDS011;5574;48.786;10.120;2023-03-11T14:42:23;1.60;;;1.30;;
11042;SDS011;5574;48.786;10.120;2023-03-11T14:44:54;1.10;;;1.00;;
11042;SDS011;5574;48.786;10.120;2023-03-11T14:47:29;2.10;;;1.10;;
11042;SDS011;5574;48.786;10.120;2023-03-11T14:49:59;1.97;;;1.10;;
11042;SDS011;5574;48.786;10.120;2023-03-11T14:52:29;1.27;;;1.10;;
11042;SDS011;5574;48.786;10.120;2023-03-11T14:55:01;2.63;;;1.43;;
11042;SDS011;5574;48.786;10.120;2023-03-11T14:57:33;3.27;;;1.10;;
11042;SDS011;5574;48.786;10.120;2023-03-11T15:00:04;2.13;;;1.20;;
11042;SDS011;5574;48.786;10.120;2023-03-11T15:02:41;1.37;;;1.10;;
11042;SDS011;5574;48.786;10.120;2023-03-11T15:05:15;3.57;;;1.20;;
11042;SDS011;5574;48.786;10.120;2023-03-11T15:07:47;3.60;;;1.27;;
11042;SDS011;5574;48.786;10.120;2023-03-11T15:10:16;1.10;;;1.00;;
11042;SDS011;5574;48.786;10.120;2023-03-11T15:12:43;1.80;;;1.20;;
11042;SDS011;5574;48.786;10.120;2023-03-11T15:15:20;1.77;;;1.23;;
11042;SDS011;5574;48.786;10.120;2023-03-11T15:17:53;3.27;;;1.40;;
11042;SDS011;5574;48.786;10.120;2023-03-11T15:20:22;3.70;;;1.60;;